createdAt,value
2023-02-22T00:02:40.257Z,16.92
2023-02-22T00:05:47.471Z,16.05
2023-02-22T00:08:52.668Z,14.95
2023-02-22T00:11:58.727Z,21.25
2023-02-22T00:15:03.646Z,23.52
2023-02-22T00:18:10.891Z,22.45
2023-02-22T00:21:17.354Z,19.85
2023-02-22T00:24:24.656Z,20.15
2023-02-22T00:27:29.324Z,19.45
2023-02-22T00:30:34.437Z,26.23
2023-02-22T00:33:39.849Z,25.40
2023-02-22T00:36:49.004Z,24.17
2023-02-22T00:39:53.889Z,22.42
2023-02-22T00:43:01.109Z,22.83
2023-02-22T00:46:05.827Z,21.75
2023-02-22T00:49:10.411Z,24.90
2023-02-22T00:52:15.099Z,28.80
2023-02-22T00:55:32.351Z,25.45
2023-02-22T00:58:36.709Z,26.95
2023-02-22T01:01:41.134Z,23.10
2023-02-22T01:04:46.640Z,22.52
2023-02-22T01:07:51.500Z,21.58
2023-02-22T01:10:56.461Z,20.33
2023-02-22T01:14:00.824Z,19.27
2023-02-22T01:17:05.954Z,17.10
2023-02-22T01:20:13.109Z,16.23
2023-02-22T01:23:17.600Z,19.20
2023-02-22T01:26:22.186Z,19.52
2023-02-22T01:29:27.100Z,21.10
2023-02-22T01:32:33.715Z,21.15
2023-02-22T01:35:41.035Z,18.42
2023-02-22T01:38:46.228Z,19.58
2023-02-22T01:41:53.723Z,18.98
2023-02-22T01:45:42.743Z,21.52
2023-02-22T01:48:52.298Z,17.67
2023-02-22T01:52:02.101Z,18.77
2023-02-22T01:55:07.304Z,19.73
2023-02-22T01:58:13.071Z,18.15
2023-02-22T02:01:19.799Z,16.05
2023-02-22T02:04:25.641Z,16.42
2023-02-22T02:07:32.489Z,17.27
2023-02-22T02:10:37.540Z,17.88
2023-02-22T02:13:44.011Z,19.27
2023-02-22T02:16:52.039Z,21.13
2023-02-22T02:20:17.079Z,20.02
2023-02-22T02:23:52.622Z,18.02
2023-02-22T02:27:18.816Z,16.85
2023-02-22T02:30:57.530Z,16.90
2023-02-22T02:34:31.841Z,16.98
2023-02-22T02:38:08.906Z,16.60
2023-02-22T02:41:41.065Z,16.55
2023-02-22T02:45:09.987Z,17.67
2023-02-22T02:48:17.121Z,18.00
2023-02-22T02:51:24.066Z,19.83
2023-02-22T02:54:30.249Z,20.67
2023-02-22T02:57:34.897Z,20.33
2023-02-22T03:00:42.194Z,17.77
2023-02-22T03:04:05.164Z,18.85
2023-02-22T03:07:42.852Z,19.87
2023-02-22T03:11:16.756Z,17.95
2023-02-22T03:14:42.173Z,18.13
2023-02-22T03:18:06.749Z,17.98
2023-02-22T03:21:30.701Z,17.67
2023-02-22T03:25:13.141Z,18.55
2023-02-22T03:28:22.178Z,19.00
2023-02-22T03:31:31.380Z,18.23
2023-02-22T03:34:52.692Z,18.98
2023-02-22T03:38:04.165Z,20.23
2023-02-22T03:41:11.756Z,21.70
2023-02-22T03:44:22.824Z,19.48
2023-02-22T03:47:43.359Z,18.52
2023-02-22T03:50:50.078Z,19.17
2023-02-22T03:53:57.079Z,19.90
2023-02-22T03:57:17.775Z,18.83
2023-02-22T04:00:28.004Z,19.60
2023-02-22T04:03:32.687Z,20.35
2023-02-22T04:06:37.821Z,20.35
2023-02-22T04:09:42.480Z,20.85
2023-02-22T04:12:48.225Z,19.38
2023-02-22T04:15:54.272Z,20.60
2023-02-22T04:18:59.083Z,20.30
2023-02-22T04:22:03.448Z,19.20
2023-02-22T04:25:12.147Z,17.83
2023-02-22T04:28:17.649Z,18.88
2023-02-22T04:31:33.759Z,19.55
2023-02-22T04:34:38.733Z,19.55
2023-02-22T04:37:43.408Z,21.13
2023-02-22T04:40:48.100Z,21.10
2023-02-22T04:43:52.852Z,19.63
2023-02-22T04:47:01.652Z,20.70
2023-02-22T04:50:08.712Z,24.63
2023-02-22T04:53:13.300Z,26.08
2023-02-22T04:56:19.413Z,25.63
2023-02-22T04:59:24.754Z,23.65
2023-02-22T05:02:40.760Z,26.60
2023-02-22T05:05:45.413Z,29.83
2023-02-22T05:08:50.354Z,29.15
2023-02-22T05:11:55.251Z,27.98
2023-02-22T05:14:59.980Z,31.10
2023-02-22T05:18:04.991Z,27.05
2023-02-22T05:21:10.545Z,31.38
2023-02-22T05:24:15.886Z,30.90
2023-02-22T05:27:20.652Z,33.45
2023-02-22T05:30:31.275Z,29.55
2023-02-22T05:33:35.703Z,31.25
2023-02-22T05:36:40.131Z,31.23
2023-02-22T05:39:46.474Z,30.92
2023-02-22T05:42:51.990Z,31.30
2023-02-22T05:45:56.255Z,30.13
2023-02-22T05:49:00.755Z,30.13
2023-02-22T05:52:05.446Z,30.63
2023-02-22T05:55:14.111Z,31.52
2023-02-22T05:58:18.770Z,30.73
2023-02-22T06:01:23.336Z,26.23
2023-02-22T06:04:28.022Z,29.15
2023-02-22T06:07:32.794Z,29.85
2023-02-22T06:10:37.536Z,28.38
2023-02-22T06:13:42.427Z,25.10
2023-02-22T06:16:54.401Z,25.73
2023-02-22T06:19:59.457Z,27.00
2023-02-22T06:23:04.087Z,28.42
2023-02-22T06:26:08.498Z,26.48
2023-02-22T06:29:13.429Z,25.90
2023-02-22T06:32:18.158Z,26.08
2023-02-22T06:35:22.952Z,30.90
2023-02-22T06:38:27.928Z,29.83
2023-02-22T06:41:32.473Z,28.10
2023-02-22T06:44:37.143Z,28.75
2023-02-22T06:47:42.320Z,25.17
2023-02-22T06:50:47.217Z,23.90
2023-02-22T06:53:52.046Z,23.92
2023-02-22T06:56:56.943Z,23.65
2023-02-22T07:00:01.576Z,25.70
2023-02-22T07:03:06.132Z,23.70
2023-02-22T07:06:10.902Z,23.15
2023-02-22T07:09:17.841Z,25.33
2023-02-22T07:12:22.142Z,28.33
2023-02-22T07:15:29.813Z,23.90
2023-02-22T07:18:34.522Z,24.17
2023-02-22T07:21:39.610Z,23.38
2023-02-22T07:24:44.274Z,26.40
2023-02-22T07:27:48.852Z,23.58
2023-02-22T07:30:53.417Z,23.83
2023-02-22T07:33:57.941Z,22.38
2023-02-22T07:37:02.771Z,20.95
2023-02-22T07:40:07.618Z,21.17
2023-02-22T07:43:27.787Z,21.48
2023-02-22T07:46:32.424Z,21.95
2023-02-22T07:49:37.310Z,24.20
2023-02-22T07:52:50.019Z,25.75
2023-02-22T07:55:55.354Z,25.88
2023-02-22T07:59:01.363Z,22.42
2023-02-22T08:02:06.177Z,25.80
2023-02-22T08:05:12.952Z,23.67
2023-02-22T08:08:19.742Z,26.98
2023-02-22T08:11:25.872Z,24.55
2023-02-22T08:14:30.779Z,24.55
2023-02-22T08:17:35.685Z,24.08
2023-02-22T08:20:43.245Z,23.83
2023-02-22T08:23:54.543Z,21.08
2023-02-22T08:26:59.306Z,23.85
2023-02-22T08:30:05.692Z,22.83
2023-02-22T08:33:14.650Z,24.15
2023-02-22T08:36:19.768Z,21.20
2023-02-22T08:39:24.582Z,23.13
2023-02-22T08:42:29.751Z,25.23
2023-02-22T08:45:35.128Z,21.23
2023-02-22T08:48:51.231Z,24.60
2023-02-22T08:51:57.283Z,21.60
2023-02-22T08:55:02.817Z,22.38
2023-02-22T08:58:12.453Z,21.10
2023-02-22T09:01:27.951Z,20.33
2023-02-22T09:05:00.656Z,19.52
2023-02-22T09:08:06.371Z,23.88
2023-02-22T09:11:14.949Z,21.60
2023-02-22T09:14:20.152Z,19.15
2023-02-22T09:17:25.246Z,20.13
2023-02-22T09:20:31.122Z,22.58
2023-02-22T09:23:36.039Z,22.98
2023-02-22T09:26:47.415Z,24.23
2023-02-22T09:29:56.426Z,27.40
2023-02-22T09:33:12.552Z,28.30
2023-02-22T09:36:26.038Z,26.70
2023-02-22T09:39:35.852Z,29.63
2023-02-22T09:42:54.290Z,27.10
2023-02-22T09:46:34.440Z,26.95
2023-02-22T09:50:03.098Z,30.65
2023-02-22T09:53:42.476Z,25.50
2023-02-22T09:56:50.281Z,28.17
2023-02-22T10:00:16.760Z,24.77
2023-02-22T10:03:34.656Z,25.80
2023-02-22T10:06:42.540Z,27.55
2023-02-22T10:09:49.714Z,24.27
2023-02-22T10:13:17.220Z,23.95
2023-02-22T10:16:42.401Z,23.48
2023-02-22T10:20:13.607Z,23.38
2023-02-22T10:23:38.737Z,23.23
2023-02-22T10:26:47.056Z,23.38
2023-02-22T10:30:18.889Z,24.50
2023-02-22T10:33:47.477Z,28.17
2023-02-22T10:37:03.485Z,23.02
2023-02-22T10:40:23.171Z,26.00
2023-02-22T10:43:28.242Z,21.50
2023-02-22T10:46:35.336Z,22.27
2023-02-22T10:49:57.092Z,23.83
2023-02-22T10:53:02.060Z,24.92
2023-02-22T10:56:21.766Z,22.90
2023-02-22T10:59:33.672Z,20.10
2023-02-22T11:02:38.461Z,19.05
2023-02-22T11:05:44.210Z,18.88
2023-02-22T11:08:51.813Z,20.27
2023-02-22T11:12:27.957Z,22.17
2023-02-22T11:15:33.013Z,19.70
2023-02-22T11:18:38.146Z,20.77
2023-02-22T11:21:44.586Z,19.70
2023-02-22T11:24:56.299Z,21.13
2023-02-22T11:28:30.984Z,18.65
2023-02-22T11:31:44.439Z,15.63
2023-02-22T11:35:03.549Z,19.35
2023-02-22T11:38:27.013Z,16.40
2023-02-22T11:41:35.428Z,17.98
2023-02-22T11:44:44.294Z,22.30
2023-02-22T11:47:59.989Z,22.33
2023-02-22T11:51:36.639Z,19.15
2023-02-22T11:55:09.973Z,20.60
2023-02-22T11:58:42.943Z,19.48
2023-02-22T12:02:20.978Z,15.98
2023-02-22T12:06:01.468Z,19.17
2023-02-22T12:09:33.506Z,18.17
2023-02-22T12:13:10.744Z,16.45
2023-02-22T12:16:44.325Z,13.80
2023-02-22T12:20:10.087Z,17.83
2023-02-22T12:23:23.394Z,16.48
2023-02-22T12:26:42.335Z,14.77
2023-02-22T12:29:58.072Z,17.40
2023-02-22T12:33:25.305Z,19.40
2023-02-22T12:36:46.793Z,18.67
2023-02-22T12:40:09.609Z,15.75
2023-02-22T12:43:25.897Z,18.70
2023-02-22T12:46:44.409Z,19.15
2023-02-22T12:50:02.288Z,17.52
2023-02-22T12:53:32.946Z,14.90
2023-02-22T12:57:20.193Z,17.58
2023-02-22T13:00:47.074Z,20.20
2023-02-22T13:03:56.011Z,19.02
2023-02-22T13:07:25.930Z,17.23
2023-02-22T13:10:53.242Z,17.83
2023-02-22T13:14:45.560Z,18.02
2023-02-22T13:18:19.606Z,16.00
2023-02-22T13:22:03.093Z,16.55
2023-02-22T13:25:58.584Z,14.02
2023-02-22T13:29:43.070Z,15.07
2023-02-22T13:33:34.725Z,15.88
2023-02-22T13:36:54.829Z,13.73
2023-02-22T13:41:03.171Z,13.88
2023-02-22T13:44:38.452Z,13.60
2023-02-22T13:48:34.392Z,12.13
2023-02-22T13:51:51.789Z,12.40
2023-02-22T13:55:04.118Z,11.55
2023-02-22T13:58:12.713Z,13.05
2023-02-22T14:01:42.139Z,13.68
2023-02-22T14:04:47.681Z,12.85
2023-02-22T14:07:53.114Z,13.25
2023-02-22T14:11:36.798Z,11.98
2023-02-22T14:15:58.267Z,12.68
2023-02-22T14:19:23.896Z,13.77
2023-02-22T14:22:30.004Z,12.18
2023-02-22T14:25:43.310Z,13.23
2023-02-22T14:29:08.165Z,13.38
2023-02-22T14:32:15.498Z,12.48
2023-02-22T14:35:30.070Z,11.20
2023-02-22T14:38:45.051Z,13.52
2023-02-22T14:42:06.801Z,11.93
2023-02-22T14:45:30.106Z,12.80
2023-02-22T14:48:43.025Z,11.30
2023-02-22T14:52:04.671Z,13.52
2023-02-22T14:55:25.545Z,12.85
2023-02-22T14:59:13.253Z,12.48
2023-02-22T15:02:20.601Z,10.48
2023-02-22T15:05:34.096Z,13.13
2023-02-22T15:08:41.753Z,11.45
2023-02-22T15:11:46.367Z,12.57
2023-02-22T15:15:12.782Z,12.23
2023-02-22T15:18:39.875Z,12.50
2023-02-22T15:21:49.971Z,12.45
2023-02-22T15:25:02.348Z,12.65
2023-02-22T15:28:09.567Z,13.18
2023-02-22T15:31:39.141Z,12.68
2023-02-22T15:34:44.153Z,12.88
2023-02-22T15:38:20.207Z,12.13
2023-02-22T15:41:33.185Z,12.48
2023-02-22T15:44:43.315Z,11.30
2023-02-22T15:47:49.943Z,11.27
2023-02-22T15:51:04.562Z,12.60
2023-02-22T15:54:15.669Z,11.35
2023-02-22T15:57:27.708Z,12.50
2023-02-22T16:00:38.375Z,12.93
2023-02-22T16:03:51.525Z,12.85
2023-02-22T16:07:17.161Z,12.40
2023-02-22T16:10:29.823Z,12.70
2023-02-22T16:13:35.993Z,14.73
2023-02-22T16:16:41.809Z,12.77
2023-02-22T16:19:46.755Z,12.07
2023-02-22T16:22:51.547Z,11.75
2023-02-22T16:26:27.863Z,12.13
2023-02-22T16:29:33.048Z,12.45
2023-02-22T16:32:37.844Z,11.02
2023-02-22T16:35:52.313Z,11.38
2023-02-22T16:38:57.393Z,11.50
2023-02-22T16:42:05.185Z,11.25
2023-02-22T16:45:15.815Z,9.45
2023-02-22T16:48:24.720Z,10.98
2023-02-22T16:51:39.780Z,10.75
2023-02-22T16:54:46.036Z,10.95
2023-02-22T16:57:54.981Z,11.35
2023-02-22T17:00:59.713Z,10.27
2023-02-22T17:04:15.714Z,11.10
2023-02-22T17:07:29.974Z,11.27
2023-02-22T17:10:35.368Z,11.27
2023-02-22T17:13:42.815Z,11.43
2023-02-22T17:16:47.886Z,10.98
2023-02-22T17:19:53.226Z,12.18
2023-02-22T17:23:01.337Z,12.57
2023-02-22T17:26:05.959Z,14.10
2023-02-22T17:29:10.905Z,14.50
2023-02-22T17:32:15.877Z,15.35
2023-02-22T17:35:23.318Z,13.95
2023-02-22T17:38:30.322Z,13.73
2023-02-22T17:41:35.155Z,15.05
2023-02-22T17:44:40.014Z,14.00
2023-02-22T17:47:45.248Z,14.15
2023-02-22T17:50:50.014Z,14.85
2023-02-22T17:53:55.086Z,14.80
2023-02-22T17:57:00.782Z,13.48
2023-02-22T18:00:13.408Z,14.27
2023-02-22T18:03:24.856Z,13.57
2023-02-22T18:06:32.785Z,13.95
2023-02-22T18:09:37.476Z,14.63
2023-02-22T18:12:43.336Z,14.90
2023-02-22T18:15:48.543Z,14.65
2023-02-22T18:18:55.037Z,14.68
2023-02-22T18:22:00.296Z,14.25
2023-02-22T18:25:05.285Z,13.35
2023-02-22T18:28:10.077Z,15.07
2023-02-22T18:31:18.929Z,14.38
2023-02-22T18:34:25.132Z,14.45
2023-02-22T18:37:30.343Z,15.63
2023-02-22T18:40:35.477Z,15.85
2023-02-22T18:43:41.259Z,15.38
2023-02-22T18:46:46.192Z,13.73
2023-02-22T18:49:50.706Z,17.10
2023-02-22T18:52:55.658Z,17.92
2023-02-22T18:56:09.553Z,16.25
2023-02-22T19:05:26.184Z,20.17
2023-02-22T19:08:32.493Z,22.20
2023-02-22T19:11:40.148Z,24.77
2023-02-22T19:14:46.140Z,24.20
2023-02-22T19:17:50.766Z,25.02
2023-02-22T19:21:02.952Z,22.98
2023-02-22T19:24:07.873Z,23.98
2023-02-22T19:27:13.793Z,25.60
2023-02-22T19:30:18.498Z,23.65
2023-02-22T19:33:26.066Z,25.38
2023-02-22T19:36:32.505Z,25.58
2023-02-22T19:39:38.499Z,26.80
2023-02-22T19:42:43.226Z,27.33
2023-02-22T19:45:48.987Z,27.20
2023-02-22T19:48:57.816Z,27.58
2023-02-22T19:52:06.592Z,31.60
2023-02-22T19:55:14.520Z,27.75
2023-02-22T19:58:19.189Z,29.10
2023-02-22T20:01:33.679Z,27.15
2023-02-22T20:04:38.480Z,29.35
2023-02-22T20:07:43.639Z,28.83
2023-02-22T20:10:48.232Z,29.40
2023-02-22T20:13:55.627Z,31.33
2023-02-22T20:17:01.462Z,30.42
2023-02-22T20:20:07.138Z,28.48
2023-02-22T20:23:12.184Z,29.52
2023-02-22T20:26:22.393Z,30.27
2023-02-22T20:29:30.067Z,29.75
2023-02-22T20:32:35.612Z,28.70
2023-02-22T20:35:40.454Z,29.55
2023-02-22T20:38:45.833Z,29.75
2023-02-22T20:41:50.991Z,30.02
2023-02-22T20:44:55.638Z,26.98
2023-02-22T20:48:00.454Z,30.08
2023-02-22T20:51:11.383Z,30.42
2023-02-22T20:54:17.312Z,29.90
2023-02-22T20:57:22.039Z,30.70
2023-02-22T21:00:29.437Z,29.88
2023-02-22T21:03:35.692Z,30.40
2023-02-22T21:06:41.325Z,29.48
2023-02-22T21:09:46.280Z,29.08
2023-02-22T21:12:52.349Z,30.73
2023-02-22T21:15:57.068Z,31.85
2023-02-22T21:19:05.912Z,32.17
2023-02-22T21:22:10.881Z,30.50
2023-02-22T21:25:16.635Z,30.13
2023-02-22T21:28:21.727Z,32.50
2023-02-22T21:31:28.440Z,33.30
2023-02-22T21:34:33.992Z,34.38
2023-02-22T21:37:39.038Z,32.50
2023-02-22T21:40:46.858Z,30.45
2023-02-22T21:43:52.250Z,30.30
2023-02-22T21:46:57.304Z,30.95
2023-02-22T21:50:01.912Z,30.75
2023-02-22T21:53:06.442Z,31.67
2023-02-22T21:56:15.282Z,31.63
2023-02-22T21:59:23.878Z,29.83
2023-02-22T22:02:29.219Z,31.83
2023-02-22T22:05:34.678Z,30.15
2023-02-22T22:08:41.860Z,31.23
2023-02-22T22:11:52.176Z,31.15
2023-02-22T22:14:57.160Z,32.60
2023-02-22T22:18:06.635Z,32.15
2023-02-22T22:21:24.132Z,32.03
2023-02-22T22:24:32.072Z,30.23
2023-02-22T22:27:37.100Z,31.73
2023-02-22T22:30:43.484Z,30.20
2023-02-22T22:33:48.506Z,35.45
2023-02-22T22:36:53.020Z,33.47
2023-02-22T22:39:58.532Z,32.05
2023-02-22T22:43:06.147Z,32.15
2023-02-22T22:46:12.481Z,32.30
2023-02-22T22:49:17.334Z,29.73
2023-02-22T22:52:21.815Z,31.70
2023-02-22T22:55:26.339Z,32.05
2023-02-22T22:58:33.802Z,30.48
2023-02-22T23:01:44.746Z,33.38
2023-02-22T23:04:51.598Z,31.85
2023-02-22T23:07:57.071Z,30.98
2023-02-22T23:11:09.124Z,31.08
2023-02-22T23:14:24.035Z,29.38
2023-02-22T23:17:40.691Z,29.15
2023-02-22T23:20:45.194Z,32.00
2023-02-22T23:23:52.221Z,30.85
2023-02-22T23:27:00.333Z,31.05
2023-02-22T23:30:06.725Z,31.00
2023-02-22T23:33:11.255Z,31.63
2023-02-22T23:36:18.156Z,31.70
2023-02-22T23:39:24.444Z,31.85
2023-02-22T23:42:29.061Z,31.95
2023-02-22T23:45:38.578Z,31.55
2023-02-22T23:48:50.724Z,31.65
2023-02-22T23:51:55.621Z,30.02
2023-02-22T23:55:01.987Z,31.42
2023-02-22T23:58:06.501Z,29.90
